Alsen, South Dakota
Current Conditions -  °F | °C
As of 10:15 AM on Friday 24 Oct 2014 (Local Time) from KYKN Reporting Station
Clear Clear  
Wind Chill: 57°   Ceiling: Unl
Heat Index: 57°   Visibility: 10mi
Dew Point: 46°   Wind: 8mph
Humidity: 67%   Direction: 320°NW
Pressure: 29.9"   Gusts: NA
Location:  43.1048°N, 96.7944°W
Report Text: KYKN 241515Z AUTO 32007KT 10SM CLR 14/08 A2990 RMK AO1
Loading
Personal Weather Stations






























Interactive Weather Map
Tropical Storm Tracking
New forecast layout! Learn more

10-Day Weather Forecast

Advertisements
Track Severe Weather on mobile